Time;durP1;ratioP1;P1;durP2;ratioP2;P2;SDS_P1;SDS_P2;PMS_P1;PMS_P2;Temp;Humidity;BMP_temperature;BMP_pressure;BME280_temperature;BME280_humidity;BME280_pressure;Samples;Min_cycle;Max_cycle;Signal;HPM_P1;HPM_P2
2021/10/07 00:02:11;;;;;;;7.00;2.90;;;;;;;9.51;86.50;101531.08;115693;1193;72599;-82
2021/10/07 00:04:38;;;;;;;3.10;1.80;;;;;;;9.46;87.05;101529.53;115597;1195;73700;-82
2021/10/07 00:07:05;;;;;;;4.40;1.50;;;;;;;9.40;87.14;101532.31;115707;1193;59673;-82
2021/10/07 00:09:32;;;;;;;2.20;1.40;;;;;;;9.36;87.26;101535.92;115653;1193;60031;-82
2021/10/07 00:12:00;;;;;;;6.90;1.30;;;;;;;9.28;87.00;101535.77;115625;1193;75636;-82
2021/10/07 00:14:27;;;;;;;4.00;1.30;;;;;;;9.20;87.08;101542.56;115618;1193;72310;-82
2021/10/07 00:16:53;;;;;;;3.00;1.20;;;;;;;9.11;87.45;101540.73;115579;1195;73744;-82
2021/10/07 00:19:20;;;;;;;7.30;1.60;;;;;;;9.04;87.82;101546.83;115656;1186;59892;-82
2021/10/07 00:21:46;;;;;;;4.00;1.30;;;;;;;8.97;88.17;101549.08;115661;1194;60031;-82
2021/10/07 00:24:13;;;;;;;4.10;1.50;;;;;;;8.93;88.57;101556.38;115625;1194;75527;-82
2021/10/07 00:26:41;;;;;;;5.00;1.60;;;;;;;8.87;88.64;101556.73;115630;1194;59650;-82
2021/10/07 00:31:58;;;;;;;5.00;1.50;;;;;;;8.73;89.20;101559.46;115712;1193;60198;-81
2021/10/07 00:39:56;;;;;;;;;;;;;;;8.46;89.17;101557.48;115654;1193;72109;-81
2021/10/07 00:42:23;;;;;;;6.00;1.20;;;;;;;8.37;88.88;101558.27;115676;1193;59644;-81
2021/10/07 00:44:49;;;;;;;5.70;1.80;;;;;;;8.30;89.30;101561.80;115644;1193;59675;-81
2021/10/07 00:47:17;;;;;;;2.30;1.50;;;;;;;8.23;89.40;101563.45;115513;1194;59677;-82
2021/10/07 00:49:44;;;;;;;4.70;1.70;;;;;;;8.16;90.16;101566.84;115640;1193;75705;-82
2021/10/07 00:52:14;;;;;;;3.00;1.70;;;;;;;8.15;90.67;101571.71;115639;1193;72006;-82
2021/10/07 00:54:41;;;;;;;3.70;1.40;;;;;;;8.12;90.95;101575.89;115687;1193;73779;-81
2021/10/07 00:57:09;;;;;;;4.70;1.60;;;;;;;8.08;90.99;101571.98;115663;1193;60248;-81
2021/10/07 00:59:36;;;;;;;5.50;1.40;;;;;;;8.05;91.42;101576.09;115689;1193;60768;-83
2021/10/07 01:02:06;;;;;;;3.70;1.60;;;;;;;8.04;91.32;101578.84;115623;1193;75507;-82
2021/10/07 01:04:34;;;;;;;3.30;1.40;;;;;;;8.02;91.11;101583.83;115666;1193;71321;-81
2021/10/07 01:07:02;;;;;;;6.80;1.40;;;;;;;7.98;91.09;101588.04;115654;1193;71907;-81
2021/10/07 01:09:29;;;;;;;3.60;1.60;;;;;;;7.96;91.45;101590.64;115670;1193;61990;-81
2021/10/07 01:11:57;;;;;;;5.90;1.50;;;;;;;7.95;91.46;101589.54;115645;1193;61239;-81
2021/10/07 01:14:43;;;;;;;4.90;1.60;;;;;;;7.96;91.66;101589.45;115639;1193;76443;-81
2021/10/07 01:17:17;;;;;;;2.50;1.20;;;;;;;7.98;91.87;101590.13;115677;1193;72388;-81
2021/10/07 01:19:48;;;;;;;3.80;1.60;;;;;;;8.04;92.51;101595.03;115689;1193;72557;-81
2021/10/07 01:22:16;;;;;;;4.60;1.70;;;;;;;8.12;92.99;101596.13;115636;1193;61192;-82
2021/10/07 01:24:43;;;;;;;7.40;2.20;;;;;;;8.21;93.26;101603.96;115677;1186;60288;-82
2021/10/07 01:27:14;;;;;;;3.10;1.60;;;;;;;8.30;93.44;101603.00;115667;1193;75265;-81
2021/10/07 01:29:41;;;;;;;5.50;1.60;;;;;;;8.37;93.36;101602.36;115719;1193;71070;-81
2021/10/07 01:32:09;;;;;;;3.50;1.90;;;;;;;8.42;93.21;101603.84;115592;1193;73887;-81
2021/10/07 01:34:36;;;;;;;5.90;1.80;;;;;;;8.48;93.05;101605.95;115693;1193;60886;-81
2021/10/07 01:37:03;;;;;;;6.30;1.90;;;;;;;8.56;93.36;101609.34;115645;1193;60356;-81
2021/10/07 01:39:30;;;;;;;6.70;1.90;;;;;;;8.64;92.96;101607.21;115674;1193;76861;-82
2021/10/07 01:41:56;;;;;;;4.20;1.50;;;;;;;8.72;93.01;101605.43;115683;1193;72058;-82
2021/10/07 01:44:24;;;;;;;5.90;1.60;;;;;;;8.80;93.44;101607.15;115643;1193;59788;-82
2021/10/07 01:46:52;;;;;;;6.80;1.70;;;;;;;8.90;93.14;101608.48;115691;1193;62143;-82
2021/10/07 01:49:18;;;;;;;3.10;1.90;;;;;;;8.99;93.01;101610.63;115642;1193;61255;-82
2021/10/07 01:51:45;;;;;;;5.90;1.90;;;;;;;9.07;93.14;101613.65;115701;1193;76356;-82
2021/10/07 01:54:12;;;;;;;3.30;1.50;;;;;;;9.13;92.89;101612.02;115689;1193;59661;-82
2021/10/07 01:56:39;;;;;;;3.20;1.70;;;;;;;9.15;92.14;101615.87;115664;1193;72742;-81
2021/10/07 01:59:05;;;;;;;3.40;1.50;;;;;;;9.16;92.25;101620.52;115674;1193;60298;-81
2021/10/07 02:01:33;;;;;;;3.40;2.40;;;;;;;9.18;92.27;101623.39;115662;1193;60242;-81
2021/10/07 02:04:04;;;;;;;3.40;1.80;;;;;;;9.22;92.20;101625.30;115642;1193;76337;-81
2021/10/07 02:06:31;;;;;;;3.80;1.80;;;;;;;9.26;92.10;101625.98;115644;1186;71537;-81
2021/10/07 02:08:57;;;;;;;5.30;1.80;;;;;;;9.30;91.86;101628.49;115675;1193;73843;-81
2021/10/07 02:11:24;;;;;;;9.80;2.10;;;;;;;9.33;91.89;101632.02;115678;1193;59596;-81
2021/10/07 02:13:51;;;;;;;5.60;1.60;;;;;;;9.36;91.84;101634.00;115687;1193;59632;-81
2021/10/07 02:16:18;;;;;;;3.20;1.60;;;;;;;9.41;92.18;101636.42;115657;1193;75433;-81
2021/10/07 02:18:44;;;;;;;3.10;1.70;;;;;;;9.47;91.97;101637.85;115744;1193;74196;-81
2021/10/07 02:21:14;;;;;;;3.90;1.90;;;;;;;9.53;92.05;101645.52;115671;1193;73823;-81
2021/10/07 02:23:41;;;;;;;7.70;2.20;;;;;;;9.57;91.96;101649.73;115711;1193;60477;-81
2021/10/07 02:26:10;;;;;;;5.30;1.80;;;;;;;9.60;92.05;101655.27;115722;1193;60319;-81
2021/10/07 02:28:36;;;;;;;4.90;1.50;;;;;;;9.64;92.04;101654.58;115715;1193;59598;-81
2021/10/07 02:31:03;;;;;;;2.40;1.10;;;;;;;9.66;91.72;101653.17;115720;1193;71180;-81
2021/10/07 02:33:30;;;;;;;5.00;1.60;;;;;;;9.67;91.41;101655.89;115690;1193;73650;-81
2021/10/07 02:35:57;;;;;;;3.30;1.60;;;;;;;9.69;91.34;101656.58;115717;1193;62163;-81
2021/10/07 02:38:23;;;;;;;6.70;1.50;;;;;;;9.70;91.32;101661.27;115608;1194;60439;-81
2021/10/07 02:40:50;;;;;;;5.00;1.60;;;;;;;9.71;91.39;101663.04;115711;1193;76462;-82
2021/10/07 02:43:17;;;;;;;9.50;1.80;;;;;;;9.75;91.32;101666.98;115719;1193;72184;-82
2021/10/07 02:45:43;;;;;;;8.60;1.70;;;;;;;9.77;91.19;101664.09;115639;1194;72549;-81
2021/10/07 02:48:10;;;;;;;5.80;1.60;;;;;;;9.78;91.39;101670.70;115640;1193;61593;-81
2021/10/07 02:50:37;;;;;;;3.90;1.80;;;;;;;9.81;91.49;101681.54;115677;1193;59776;-81
2021/10/07 02:53:03;;;;;;;4.30;1.40;;;;;;;9.82;91.43;101681.87;115631;1194;75594;-81
2021/10/07 02:55:30;;;;;;;3.70;1.60;;;;;;;9.79;91.44;101684.17;115700;1186;70825;-81
2021/10/07 02:57:57;;;;;;;2.50;1.40;;;;;;;9.78;91.60;101686.96;115697;1193;72730;-81
2021/10/07 03:00:24;;;;;;;4.30;1.30;;;;;;;9.76;91.68;101691.38;115659;1193;61632;-81
2021/10/07 03:02:51;;;;;;;2.70;1.40;;;;;;;9.76;91.71;101695.48;115584;1194;60212;-81
2021/10/07 03:05:18;;;;;;;2.30;1.50;;;;;;;9.76;91.76;101702.17;115697;1193;75354;-81
2021/10/07 03:07:44;;;;;;;2.40;1.30;;;;;;;9.75;91.64;101705.06;115685;1193;59600;-81
2021/10/07 03:10:11;;;;;;;7.70;1.70;;;;;;;9.77;91.55;101704.52;115697;1193;59770;-80
2021/10/07 03:12:38;;;;;;;5.00;1.70;;;;;;;9.78;91.60;101704.95;115689;1193;61981;-80
2021/10/07 03:15:05;;;;;;;2.90;1.60;;;;;;;9.79;91.54;101705.76;115693;1194;60075;-80
2021/10/07 03:17:32;;;;;;;3.40;1.40;;;;;;;9.78;91.36;101706.04;115660;1193;75466;-80
2021/10/07 03:19:58;;;;;;;2.90;1.70;;;;;;;9.77;91.39;101708.10;115681;1193;72707;-80
2021/10/07 03:22:25;;;;;;;3.50;1.60;;;;;;;9.79;91.47;101714.98;115662;1193;59597;-82
2021/10/07 03:24:52;;;;;;;5.70;1.90;;;;;;;9.77;91.07;101723.78;115613;1193;62002;-82
2021/10/07 03:27:18;;;;;;;3.40;1.50;;;;;;;9.75;91.13;101723.23;115659;1193;61272;-82
2021/10/07 03:29:45;;;;;;;4.80;2.30;;;;;;;9.71;91.15;101722.45;115656;1193;76468;-86
2021/10/07 03:32:12;;;;;;;3.50;1.50;;;;;;;9.68;91.37;101729.12;115689;1193;72482;-81
2021/10/07 03:34:38;;;;;;;2.10;1.30;;;;;;;9.65;91.52;101729.77;115725;1193;73629;-81
2021/10/07 03:37:05;;;;;;;3.10;1.70;;;;;;;9.60;91.57;101733.88;115723;1193;59556;-81
2021/10/07 03:39:32;;;;;;;3.60;1.80;;;;;;;9.58;91.48;101736.58;115666;1195;60425;-81
2021/10/07 03:41:58;;;;;;;3.20;1.70;;;;;;;9.56;91.90;101737.94;115730;1193;60428;-81
2021/10/07 03:44:25;;;;;;;4.30;1.80;;;;;;;9.56;92.02;101737.78;115639;1193;71306;-81
2021/10/07 03:46:51;;;;;;;4.10;1.50;;;;;;;9.56;92.09;101742.74;115683;1193;73576;-81
2021/10/07 03:49:18;;;;;;;4.10;1.40;;;;;;;9.57;92.05;101745.52;115682;1193;61678;-81
2021/10/07 03:51:45;;;;;;;4.90;1.50;;;;;;;9.58;92.05;101746.42;115653;1193;59633;-81
2021/10/07 03:54:11;;;;;;;4.40;1.90;;;;;;;9.60;92.39;101752.79;115697;1193;75528;-81
2021/10/07 03:56:39;;;;;;;4.30;1.90;;;;;;;9.63;92.30;101757.83;115685;1193;72346;-81
2021/10/07 03:59:06;;;;;;;3.20;1.60;;;;;;;9.66;92.44;101763.66;115692;1193;72262;-81
2021/10/07 04:01:33;;;;;;;2.50;1.60;;;;;;;9.71;92.29;101773.14;115590;1195;62757;-81
2021/10/07 04:04:00;;;;;;;7.10;1.90;;;;;;;9.75;92.34;101780.73;115748;1193;62210;-81
2021/10/07 04:06:26;;;;;;;2.50;1.70;;;;;;;9.76;92.14;101784.86;115640;1194;76425;-81
2021/10/07 04:08:53;;;;;;;4.10;1.90;;;;;;;9.77;92.16;101787.51;115689;1193;71033;-80
2021/10/07 04:11:20;;;;;;;4.50;1.90;;;;;;;9.79;92.07;101788.94;115630;1193;72641;-82
2021/10/07 04:13:49;;;;;;;4.60;1.80;;;;;;;9.80;92.03;101786.43;115653;1193;60630;-81
2021/10/07 04:16:16;;;;;;;4.70;2.00;;;;;;;9.82;91.82;101788.56;115633;1193;61372;-81
2021/10/07 04:18:44;;;;;;;4.40;1.60;;;;;;;9.83;91.84;101792.04;115643;1194;75131;-81
2021/10/07 04:21:12;;;;;;;4.20;1.90;;;;;;;9.83;91.87;101796.77;115504;1194;71138;-83
2021/10/07 04:23:38;;;;;;;3.30;1.70;;;;;;;9.85;91.78;101798.39;115568;1193;73734;-82
2021/10/07 04:26:06;;;;;;;4.30;1.50;;;;;;;9.84;91.60;101803.61;115677;1193;63384;-82
2021/10/07 04:28:34;;;;;;;4.60;1.80;;;;;;;9.81;91.57;101808.42;115738;1193;60501;-82
2021/10/07 04:31:01;;;;;;;4.60;1.90;;;;;;;9.80;91.72;101815.58;115697;1193;76758;-82
2021/10/07 04:33:30;;;;;;;3.70;1.90;;;;;;;9.81;91.85;101820.59;115719;1193;69997;-84
2021/10/07 04:35:57;;;;;;;5.30;1.90;;;;;;;9.83;91.85;101816.55;115722;1193;72090;-76
2021/10/07 04:38:23;;;;;;;3.30;1.80;;;;;;;9.84;91.71;101818.73;115668;1193;60520;-76
2021/10/07 04:40:50;;;;;;;5.50;2.60;;;;;;;9.86;91.81;101819.95;115663;1193;61086;-76
2021/10/07 04:43:18;;;;;;;4.00;1.90;;;;;;;9.89;91.85;101824.86;115714;1193;76765;-76
2021/10/07 04:45:44;;;;;;;4.00;1.80;;;;;;;9.92;91.76;101823.02;115700;1193;69928;-76
2021/10/07 04:48:12;;;;;;;3.90;2.00;;;;;;;9.94;91.79;101826.50;115708;1193;72911;-76
2021/10/07 04:50:40;;;;;;;4.70;2.10;;;;;;;9.96;91.52;101828.39;115699;1193;64539;-76
2021/10/07 04:53:06;;;;;;;2.40;1.80;;;;;;;9.99;91.52;101831.15;115685;1193;60423;-76
2021/10/07 04:55:33;;;;;;;10.00;2.70;;;;;;;10.00;91.46;101837.25;115783;1193;76553;-76
2021/10/07 04:58:00;;;;;;;5.00;2.00;;;;;;;10.02;91.39;101842.73;115701;1193;72149;-76
2021/10/07 05:00:28;;;;;;;4.60;2.00;;;;;;;10.04;91.28;101844.84;115708;1193;71810;-76
2021/10/07 05:02:57;;;;;;;4.40;2.00;;;;;;;10.05;91.25;101846.33;115699;1193;62689;-76
2021/10/07 05:05:24;;;;;;;5.70;1.70;;;;;;;10.06;91.21;101854.20;115732;1193;60256;-76
2021/10/07 05:07:50;;;;;;;4.30;2.00;;;;;;;10.07;91.01;101853.88;115732;1193;76648;-76
2021/10/07 05:10:17;;;;;;;4.60;2.00;;;;;;;10.08;90.86;101854.20;115719;1193;71183;-76
2021/10/07 05:12:44;;;;;;;4.30;2.40;;;;;;;10.07;90.78;101859.35;115710;1193;72577;-76
2021/10/07 05:15:11;;;;;;;4.70;2.10;;;;;;;10.07;90.79;101863.77;115737;1193;61615;-76
2021/10/07 05:17:37;;;;;;;4.60;2.40;;;;;;;10.07;90.73;101868.56;115724;1193;61458;-76
2021/10/07 05:20:05;;;;;;;4.50;2.60;;;;;;;10.05;90.69;101872.27;115606;1194;75439;-77
2021/10/07 05:22:32;;;;;;;6.60;2.80;;;;;;;10.03;90.69;101865.23;115722;1193;71153;-76
2021/10/07 05:24:58;;;;;;;5.70;2.60;;;;;;;10.01;90.68;101866.46;115768;1193;71581;-77
2021/10/07 05:27:25;;;;;;;4.30;2.60;;;;;;;10.00;91.03;101870.98;115721;1193;59586;-76
2021/10/07 05:29:51;;;;;;;5.50;3.40;;;;;;;10.01;90.72;101872.16;115763;1193;58920;-76
2021/10/07 05:32:18;;;;;;;4.90;2.90;;;;;;;10.01;90.54;101875.48;115680;1193;59380;-76
2021/10/07 05:34:44;;;;;;;6.10;2.50;;;;;;;10.02;90.60;101876.64;115713;1193;59018;-75
2021/10/07 05:37:11;;;;;;;7.70;3.00;;;;;;;10.03;90.68;101882.06;115668;1186;73632;-75
2021/10/07 05:39:38;;;;;;;6.20;3.40;;;;;;;10.03;90.64;101883.96;115687;1193;63047;-76
2021/10/07 05:42:05;;;;;;;5.00;2.80;;;;;;;10.05;90.51;101887.13;115659;1193;60444;-77
2021/10/07 05:44:31;;;;;;;7.70;3.50;;;;;;;10.06;90.54;101894.77;115739;1193;74556;-76
2021/10/07 05:46:58;;;;;;;6.30;3.40;;;;;;;10.07;90.42;101892.63;115673;1193;59699;-76
2021/10/07 05:49:27;;;;;;;7.20;3.00;;;;;;;10.07;90.37;101899.02;115719;1193;72534;-76
2021/10/07 05:51:55;;;;;;;4.50;2.60;;;;;;;10.04;90.26;101898.86;115744;1193;60338;-76
2021/10/07 05:54:22;;;;;;;7.50;3.50;;;;;;;10.01;90.29;101905.69;115729;1193;60371;-76
2021/10/07 05:56:49;;;;;;;5.30;3.30;;;;;;;9.97;90.37;101906.41;115715;1193;76704;-76
2021/10/07 05:59:16;;;;;;;5.20;2.30;;;;;;;9.94;90.15;101909.75;115731;1193;59828;-77
2021/10/07 06:01:43;;;;;;;6.30;2.90;;;;;;;9.88;90.13;101904.77;115707;1193;72804;-78
2021/10/07 06:04:10;;;;;;;4.80;3.40;;;;;;;9.83;90.10;101902.80;115617;1193;62928;-74
2021/10/07 06:06:36;;;;;;;6.40;4.10;;;;;;;9.77;90.06;101906.32;115719;1193;59829;-75
2021/10/07 06:09:03;;;;;;;8.10;4.10;;;;;;;9.72;90.29;101906.76;115669;1193;59541;-74
2021/10/07 06:11:29;;;;;;;5.70;3.50;;;;;;;9.67;90.15;101914.78;115671;1193;70976;-74
2021/10/07 06:13:56;;;;;;;9.40;4.40;;;;;;;9.62;90.29;101918.59;115674;1193;59562;-74
2021/10/07 06:16:23;;;;;;;7.50;3.70;;;;;;;9.59;90.55;101925.41;115662;1193;59694;-74
2021/10/07 06:18:50;;;;;;;8.20;3.90;;;;;;;9.57;90.47;101928.98;115710;1193;59707;-74
2021/10/07 06:21:17;;;;;;;14.70;4.30;;;;;;;9.52;90.52;101932.42;115746;1193;74302;-74
2021/10/07 06:23:57;;;;;;;8.70;4.70;;;;;;;9.49;90.85;101938.85;115762;1187;71050;-74
2021/10/07 06:26:35;;;;;;;6.20;3.40;;;;;;;9.47;90.83;101944.51;115696;1193;73300;-74
2021/10/07 06:29:01;;;;;;;7.30;4.30;;;;;;;9.45;90.94;101939.74;115682;1193;59717;-74
2021/10/07 06:31:28;;;;;;;6.80;4.40;;;;;;;9.46;90.98;101937.21;115633;1194;59645;-74
2021/10/07 06:33:55;;;;;;;8.70;4.10;;;;;;;9.46;90.93;101941.95;115656;1193;76471;-74
2021/10/07 06:36:21;;;;;;;10.90;3.90;;;;;;;9.48;91.22;101947.74;115669;1193;71056;-74
2021/10/07 06:38:48;;;;;;;6.00;3.90;;;;;;;9.51;91.04;101952.61;115645;1193;72517;-74
2021/10/07 06:41:15;;;;;;;9.00;4.20;;;;;;;9.53;91.10;101950.88;115709;1193;59695;-74
2021/10/07 06:43:43;;;;;;;8.00;4.50;;;;;;;9.58;91.17;101949.52;115679;1193;60285;-74
2021/10/07 06:46:10;;;;;;;12.00;4.40;;;;;;;9.62;90.88;101948.64;115732;1193;75716;-74
2021/10/07 06:48:36;;;;;;;7.50;4.80;;;;;;;9.65;90.54;101957.41;115702;1193;71049;-74
2021/10/07 06:51:09;;;;;;;10.10;5.10;;;;;;;9.67;90.51;101961.48;115651;1194;72638;-74
2021/10/07 06:53:37;;;;;;;10.70;5.10;;;;;;;9.70;90.60;101967.33;115690;1193;62041;-74
2021/10/07 06:56:07;;;;;;;9.10;3.60;;;;;;;9.73;90.35;101962.65;115721;1193;59667;-74
2021/10/07 06:58:34;;;;;;;8.30;4.30;;;;;;;9.76;90.28;101963.95;115675;1193;76575;-74
2021/10/07 07:01:00;;;;;;;11.50;4.60;;;;;;;9.81;90.26;101967.23;115688;1193;72183;-73
2021/10/07 07:03:27;;;;;;;11.90;4.50;;;;;;;9.86;90.16;101968.20;115687;1193;72424;-79
2021/10/07 07:05:54;;;;;;;8.20;4.50;;;;;;;9.93;90.12;101974.45;115782;1193;61956;-79
2021/10/07 07:08:21;;;;;;;17.70;5.00;;;;;;;10.00;89.95;101978.06;115681;1193;60316;-79
2021/10/07 07:10:48;;;;;;;11.80;4.70;;;;;;;10.10;89.89;101981.39;115717;1193;75580;-79
2021/10/07 07:13:16;;;;;;;8.00;4.30;;;;;;;10.22;89.83;101989.29;115773;1193;71092;-79
2021/10/07 07:15:43;;;;;;;11.40;4.30;;;;;;;10.33;89.86;101992.40;115717;1193;72597;-79
2021/10/07 07:18:10;;;;;;;18.00;7.10;;;;;;;10.43;89.57;101992.04;115759;1193;60793;-79
2021/10/07 07:20:36;;;;;;;17.20;5.00;;;;;;;10.54;89.25;101994.20;115655;1194;59826;-78
2021/10/07 07:23:08;;;;;;;10.40;5.20;;;;;;;10.63;88.79;101991.44;115740;1193;59614;-78
2021/10/07 07:25:35;;;;;;;10.00;4.80;;;;;;;10.73;88.63;101992.76;115662;1193;71070;-78
2021/10/07 07:28:02;;;;;;;15.60;4.40;;;;;;;10.83;87.79;101994.19;115711;1193;73417;-78
2021/10/07 07:30:28;;;;;;;20.00;7.10;;;;;;;10.92;87.79;101999.98;115678;1193;61672;-78
2021/10/07 07:32:55;;;;;;;11.10;4.60;;;;;;;11.02;87.35;102003.98;115740;1193;59918;-78
2021/10/07 07:35:21;;;;;;;12.60;4.00;;;;;;;11.13;87.22;102011.52;115728;1193;59671;-78
2021/10/07 07:37:48;;;;;;;9.80;4.20;;;;;;;11.26;87.07;102016.48;115756;1193;59762;-79
2021/10/07 07:40:15;;;;;;;11.30;4.60;;;;;;;11.38;86.96;102020.08;115718;1193;74121;-79
2021/10/07 07:42:46;;;;;;;7.20;4.20;;;;;;;11.51;86.34;102022.59;115781;1193;60615;-78
2021/10/07 07:45:12;;;;;;;17.10;8.00;;;;;;;11.60;86.00;102022.58;115621;1194;60986;-78
2021/10/07 07:47:57;;;;;;;8.00;4.40;;;;;;;11.71;85.86;102024.35;115741;1193;75430;-78
2021/10/07 07:50:27;;;;;;;9.90;4.00;;;;;;;11.81;85.25;102025.48;115725;1193;72306;-78
2021/10/07 07:52:54;;;;;;;7.20;4.00;;;;;;;11.93;85.07;102031.66;115719;1193;72723;-79
2021/10/07 07:55:21;;;;;;;10.60;4.30;;;;;;;12.02;84.60;102037.30;115754;1193;63139;-80
2021/10/07 07:57:48;;;;;;;8.40;3.60;;;;;;;12.14;84.33;102037.71;115726;1193;60932;-79
2021/10/07 08:00:15;;;;;;;7.00;4.00;;;;;;;12.26;84.04;102043.94;115685;1194;59688;-79
2021/10/07 08:02:42;;;;;;;13.50;4.30;;;;;;;12.37;83.74;102042.35;115762;1193;72065;-78
2021/10/07 08:05:09;;;;;;;5.80;3.40;;;;;;;12.51;83.48;102047.17;115773;1193;72610;-78
2021/10/07 08:07:36;;;;;;;6.00;3.00;;;;;;;12.61;83.00;102046.79;115736;1193;60392;-79
2021/10/07 08:10:03;;;;;;;9.60;3.30;;;;;;;12.73;82.83;102048.33;115763;1193;60014;-78
2021/10/07 08:12:33;;;;;;;8.00;3.40;;;;;;;12.82;81.70;102043.30;115765;1193;76514;-79
2021/10/07 08:15:01;;;;;;;8.20;3.50;;;;;;;12.88;81.84;102043.17;115749;1193;71210;-78
2021/10/07 08:17:28;;;;;;;6.00;3.00;;;;;;;12.98;81.67;102043.95;115684;1193;72509;-79
2021/10/07 08:19:55;;;;;;;4.30;2.40;;;;;;;13.10;81.06;102044.70;115661;1193;61707;-78
2021/10/07 08:22:23;;;;;;;9.20;3.40;;;;;;;13.15;80.15;102045.19;115712;1193;60037;-79
2021/10/07 08:24:49;;;;;;;6.70;3.00;;;;;;;13.21;80.61;102048.55;115692;1193;75938;-75
2021/10/07 08:27:16;;;;;;;6.00;2.90;;;;;;;13.31;80.38;102053.19;115727;1193;71140;-75
2021/10/07 08:29:42;;;;;;;5.40;3.00;;;;;;;13.37;79.24;102055.39;115710;1193;73571;-75
2021/10/07 08:32:09;;;;;;;10.10;3.80;;;;;;;13.43;78.90;102060.11;115684;1193;59752;-75
2021/10/07 08:34:36;;;;;;;8.30;3.10;;;;;;;13.53;78.96;102060.21;115739;1193;59594;-75
2021/10/07 08:37:04;;;;;;;4.50;2.80;;;;;;;13.64;79.70;102059.39;115741;1193;76539;-75
2021/10/07 08:39:32;;;;;;;4.10;2.60;;;;;;;13.80;78.99;102058.93;115691;1193;72002;-75
2021/10/07 08:41:59;;;;;;;3.40;2.00;;;;;;;13.93;78.31;102060.54;115666;1193;73125;-74
2021/10/07 08:44:27;;;;;;;5.90;3.00;;;;;;;13.99;76.84;102064.21;115731;1193;60700;-75
2021/10/07 08:46:54;;;;;;;5.40;2.50;;;;;;;14.05;77.38;102060.09;115694;1193;60222;-76
2021/10/07 08:49:23;;;;;;;4.40;2.30;;;;;;;14.17;77.06;102068.35;115699;1193;76419;-75
2021/10/07 08:51:50;;;;;;;5.50;3.40;;;;;;;14.26;76.87;102070.89;115696;1193;70513;-75
2021/10/07 08:54:18;;;;;;;5.00;3.10;;;;;;;14.40;76.84;102071.73;115713;1193;73838;-75
2021/10/07 08:56:44;;;;;;;6.20;2.90;;;;;;;14.49;75.35;102069.70;115774;1193;60430;-75
2021/10/07 08:59:11;;;;;;;5.70;2.60;;;;;;;14.52;75.52;102064.33;115700;1193;61359;-75
2021/10/07 09:01:39;;;;;;;5.50;2.90;;;;;;;14.56;74.77;102066.92;115764;1193;75350;-75
2021/10/07 09:04:20;;;;;;;6.20;2.60;;;;;;;14.61;74.14;102072.30;115674;1193;72286;-74
2021/10/07 09:06:49;;;;;;;4.90;2.20;;;;;;;14.69;74.33;102073.77;115728;1193;73712;-74
2021/10/07 09:09:22;;;;;;;6.50;3.00;;;;;;;14.78;74.18;102077.10;115645;1195;61972;-75
2021/10/07 09:11:54;;;;;;;6.10;2.30;;;;;;;14.86;73.66;102075.45;115712;1193;60111;-75
2021/10/07 09:14:32;;;;;;;7.50;3.00;;;;;;;14.82;73.77;102077.48;115706;1193;75146;-74
2021/10/07 09:17:00;;;;;;;4.90;3.00;;;;;;;14.91;74.54;102070.25;115708;1193;72271;-75
2021/10/07 09:19:28;;;;;;;6.70;2.70;;;;;;;15.08;74.27;102068.38;115651;1193;73762;-75
2021/10/07 09:21:56;;;;;;;5.90;3.10;;;;;;;15.10;73.02;102067.78;115704;1193;60385;-76
2021/10/07 09:24:37;;;;;;;5.40;3.20;;;;;;;15.00;72.05;102070.35;115694;1193;61330;-75
2021/10/07 09:27:17;;;;;;;5.90;2.40;;;;;;;14.90;72.26;102070.77;115665;1193;75389;-75
2021/10/07 09:29:53;;;;;;;3.90;2.00;;;;;;;14.90;72.73;102074.46;115677;1193;72028;-75
2021/10/07 09:32:28;;;;;;;4.90;2.60;;;;;;;14.99;72.37;102077.27;115649;1193;72616;-75
2021/10/07 09:34:57;;;;;;;4.00;2.10;;;;;;;15.05;71.97;102073.46;115721;1193;60103;-75
2021/10/07 09:37:31;;;;;;;6.30;2.60;;;;;;;15.17;71.67;102081.06;115651;1193;60285;-74
2021/10/07 09:40:06;;;;;;;3.10;1.80;;;;;;;15.36;71.92;102086.98;115725;1193;73221;-75
2021/10/07 09:42:34;;;;;;;;;;;;;;;15.54;71.46;102086.45;115672;1193;71095;-74
2021/10/07 09:45:11;;;;;;;3.00;1.90;;;;;;;15.65;70.19;102085.73;115610;1187;73577;-75
2021/10/07 09:47:43;;;;;;;2.10;1.50;;;;;;;15.75;69.83;102084.98;115698;1193;60922;-75
2021/10/07 09:50:32;;;;;;;3.80;2.00;;;;;;;15.76;69.90;102087.11;115739;1193;60445;-74
2021/10/07 09:53:00;;;;;;;4.00;1.90;;;;;;;15.85;69.87;102091.69;115700;1193;74469;-74
2021/10/07 09:55:33;;;;;;;3.80;2.20;;;;;;;15.93;69.78;102091.27;115652;1194;71348;-74
2021/10/07 09:58:04;;;;;;;5.10;2.30;;;;;;;16.01;69.61;102090.39;115650;1194;72627;-74
2021/10/07 10:00:38;;;;;;;3.40;2.00;;;;;;;16.14;68.75;102095.10;115667;1195;60728;-74
2021/10/07 10:03:07;;;;;;;3.50;1.50;;;;;;;16.26;67.38;102096.30;115677;1193;60808;-76
2021/10/07 10:05:36;;;;;;;3.60;2.00;;;;;;;16.32;66.13;102094.80;115649;1193;75430;-76
2021/10/07 10:08:08;;;;;;;3.70;1.60;;;;;;;16.39;66.64;102098.63;115757;1193;71040;-75
2021/10/07 10:10:36;;;;;;;3.60;1.90;;;;;;;16.61;66.39;102096.20;115712;1193;73614;-75
2021/10/07 10:13:04;;;;;;;3.90;2.40;;;;;;;16.84;65.36;102099.68;115563;1195;61138;-76
2021/10/07 10:15:33;;;;;;;4.10;1.90;;;;;;;16.94;64.53;102097.23;115716;1193;61224;-76
2021/10/07 10:18:06;;;;;;;2.60;1.70;;;;;;;16.90;62.48;102096.41;115715;1193;76513;-76
2021/10/07 10:20:36;;;;;;;3.10;1.40;;;;;;;16.87;62.87;102099.82;115742;1193;72189;-76
2021/10/07 10:23:12;;;;;;;3.30;1.10;;;;;;;16.86;62.29;102102.13;115712;1193;73732;-76
2021/10/07 10:25:59;;;;;;;1.80;1.00;;;;;;;16.86;62.73;102103.82;115701;1193;61251;-76
2021/10/07 10:28:35;;;;;;;2.30;1.20;;;;;;;16.92;62.85;102105.67;115647;1194;61818;-76
2021/10/07 10:31:07;;;;;;;3.40;1.50;;;;;;;16.97;62.56;102109.59;115725;1193;75369;-76
2021/10/07 10:33:40;;;;;;;3.20;1.60;;;;;;;17.02;62.80;102108.59;115718;1193;71870;-76
2021/10/07 10:36:24;;;;;;;2.60;1.50;;;;;;;17.11;62.69;102109.84;115632;1195;73583;-76
2021/10/07 10:39:13;;;;;;;1.90;1.10;;;;;;;17.21;61.28;102109.77;115684;1193;59979;-76
2021/10/07 10:42:10;;;;;;;2.60;1.40;;;;;;;17.26;61.04;102110.71;115764;1193;61295;-74
2021/10/07 10:44:58;;;;;;;4.90;1.20;;;;;;;17.32;59.71;102107.02;115726;1193;75624;-75
2021/10/07 10:47:31;;;;;;;2.90;1.20;;;;;;;17.38;59.86;102105.92;115882;1193;71952;-75
2021/10/07 10:50:00;;;;;;;2.80;1.10;;;;;;;17.39;60.31;102104.63;115781;1193;73559;-74
2021/10/07 10:52:37;;;;;;;3.10;1.30;;;;;;;17.40;60.64;102113.00;115748;1193;60309;-75
2021/10/07 10:55:08;;;;;;;3.40;1.40;;;;;;;17.27;59.48;102115.80;115689;1193;60244;-75
2021/10/07 10:57:45;;;;;;;1.60;1.10;;;;;;;17.16;60.62;102121.21;115696;1193;75345;-74
2021/10/07 11:00:24;;;;;;;3.10;1.40;;;;;;;17.12;61.12;102124.36;115589;1193;72505;-75
2021/10/07 11:03:14;;;;;;;2.50;1.10;;;;;;;17.14;61.17;102121.64;115720;1193;72780;-74
2021/10/07 11:06:02;;;;;;;2.30;1.00;;;;;;;17.22;61.22;102125.52;115658;1194;60929;-75
2021/10/07 11:08:53;;;;;;;3.00;1.10;;;;;;;17.41;61.57;102124.95;115694;1193;59858;-74
2021/10/07 11:11:35;;;;;;;2.30;1.00;;;;;;;17.66;60.11;102124.42;115729;1193;75401;-74
2021/10/07 11:14:02;;;;;;;2.40;1.00;;;;;;;17.79;59.56;102123.23;115696;1193;71223;-74
2021/10/07 11:16:29;;;;;;;1.60;1.10;;;;;;;17.91;59.91;102125.25;115715;1193;72943;-74
2021/10/07 11:18:56;;;;;;;3.10;1.00;;;;;;;18.09;59.74;102127.77;115674;1194;60167;-74
2021/10/07 11:21:23;;;;;;;2.40;1.10;;;;;;;18.26;57.97;102131.83;115685;1193;60132;-73
2021/10/07 11:23:52;;;;;;;2.20;1.20;;;;;;;18.36;56.33;102132.73;115711;1193;75351;-73
2021/10/07 11:26:22;;;;;;;3.60;1.20;;;;;;;18.44;56.11;102133.33;115714;1193;71138;-74
2021/10/07 11:28:50;;;;;;;1.60;1.00;;;;;;;18.53;56.53;102132.89;115711;1193;72958;-73
2021/10/07 11:31:22;;;;;;;1.60;0.80;;;;;;;18.66;56.84;102135.41;115710;1193;60278;-74
2021/10/07 11:33:52;;;;;;;2.80;1.20;;;;;;;18.68;55.94;102133.89;115754;1193;60610;-73
2021/10/07 11:36:26;;;;;;;4.40;1.10;;;;;;;18.73;56.27;102134.55;115659;1193;76915;-73
2021/10/07 11:38:54;;;;;;;2.20;1.00;;;;;;;18.81;55.68;102133.23;115661;1194;70581;-75